Observations for Trim Patrick St
| Time | AQI | Temp °C | Hum % | Pres Pa | CO μg/m³ | H₂S μg/m³ | NO μg/m³ | NO₂ μg/m³ | O₃ μg/m³ | SO₂ μg/m³ | PM1 μg/m³ | PM2.5 μg/m³ | PM10 μg/m³ |
|---|---|---|---|---|---|---|---|---|---|---|---|---|---|
| Friday 31 July 2026 | |||||||||||||
| 05:01 | 2 | 10.2 | 81 | 38,460 | 0.39 | 0.97 | 4.34 | 18.98 | 33.06 | 0 | 5.43 | 8.68 | 9.54 |
| 05:00 | 2 | 10.2 | 80 | 38,460 | 0.4 | 1.56 | 4.35 | 20.38 | 37.97 | 0 | 4.57 | 7.99 | 8.79 |
| 04:59 | 2 | 10.2 | 80 | 38,460 | 0.39 | 1.33 | 4.32 | 21.24 | 36.52 | 0 | 3.71 | 7.29 | 8.01 |
| 04:58 | 2 | 10.2 | 80 | 38,460 | 0.39 | 0 | 4.35 | 15.06 | 23.2 | 0 | 3.71 | 6.59 | 7.25 |
| 04:57 | 2 | 10.2 | 80 | 38,460 | 0.39 | 0 | 4.36 | 17.76 | 35.81 | 0 | 4.57 | 8.01 | 8.81 |
| 04:56 | 2 | 10.2 | 80 | 38,460 | 0.39 | 0.1 | 4.36 | 12.78 | 26.6 | 0 | 3.71 | 7.29 | 8.02 |
| 04:55 | 2 | 10.3 | 80 | 38,460 | 0.38 | 0.9 | 4.45 | 17.02 | 33.18 | 0 | 3.71 | 7.32 | 8.05 |
| 04:53 | 2 | 10.3 | 80 | 38,460 | 0.39 | 1.2 | 4.44 | 17.46 | 33.98 | 0 | 4.57 | 7.31 | 8.04 |
| 04:51 | 2 | 10.3 | 80 | 38,460 | 0.38 | 0.95 | 4.45 | 16.24 | 32.21 | 0 | 5.43 | 9.45 | 10.4 |
| 04:50 | 2 | 10.3 | 79 | 38,460 | 0.38 | 1.51 | 4.39 | 19.54 | 37.07 | 0 | 4.57 | 8.1 | 8.91 |
| 04:49 | 2 | 10.3 | 80 | 38,460 | 0.39 | 0.97 | 4.38 | 19.53 | 28.92 | 0 | 3.71 | 7.31 | 8.05 |
| 04:48 | 2 | 10.3 | 80 | 38,460 | 0.39 | 0.92 | 4.35 | 19.74 | 33.89 | 0 | 4.57 | 8.03 | 8.83 |
| 04:47 | 2 | 10.3 | 80 | 38,460 | 0.38 | 0.41 | 4.09 | 17.2 | 32.28 | 0 | 4.57 | 8.03 | 8.83 |
| 04:46 | 2 | 10.4 | 80 | 38,460 | 0.38 | 0.15 | 4.02 | 16 | 29.26 | 0 | 3.71 | 6.63 | 7.29 |
| 04:45 | 2 | 10.4 | 80 | 38,460 | 0.37 | 1.39 | 4.06 | 19.19 | 30.44 | 0 | 4.57 | 8.73 | 9.6 |
| 04:44 | 2 | 10.4 | 79 | 38,460 | 0.4 | 2.39 | 4.1 | 28.92 | 35.62 | 0 | 3.71 | 7.39 | 8.13 |
| 04:40 | 2 | 10.4 | 80 | 38,460 | 0.37 | 0 | 4.34 | 12.71 | 26.23 | 0 | 4.57 | 8.04 | 8.85 |
| 04:39 | 2 | 10.4 | 80 | 38,460 | 0.38 | 1.34 | 4.34 | 17.72 | 33.82 | 0 | 4.57 | 8.75 | 9.63 |
| 04:38 | 2 | 10.5 | 80 | 38,460 | 0.38 | 0 | 4.29 | 16.09 | 27.21 | 0 | 4.57 | 8.74 | 9.62 |
| 04:37 | 2 | 10.5 | 80 | 38,460 | 0.37 | 0.03 | 4.34 | 12.76 | 27.95 | 0 | 5.43 | 8.75 | 9.63 |